sensor_id;sensor_type;location;lat;lon;timestamp;P1;durP1;ratioP1;P2;durP2;ratioP2
65686;SDS011;52406;45.078;38.986;2022-07-21T00:02:05;9.90;;;1.60;;
65686;SDS011;52406;45.078;38.986;2022-07-21T00:04:32;2.00;;;1.20;;
65686;SDS011;52406;45.078;38.986;2022-07-21T00:07:00;4.05;;;1.35;;
65686;SDS011;52406;45.078;38.986;2022-07-21T00:09:27;7.50;;;1.60;;
65686;SDS011;52406;45.078;38.986;2022-07-21T00:11:53;2.05;;;1.05;;
65686;SDS011;52406;45.078;38.986;2022-07-21T00:14:20;4.35;;;1.15;;
65686;SDS011;52406;45.078;38.986;2022-07-21T00:16:47;2.45;;;1.10;;
65686;SDS011;52406;45.078;38.986;2022-07-21T00:19:16;6.88;;;1.52;;
65686;SDS011;52406;45.078;38.986;2022-07-21T00:21:43;6.70;;;1.25;;
65686;SDS011;52406;45.078;38.986;2022-07-21T00:24:09;3.15;;;1.20;;
65686;SDS011;52406;45.078;38.986;2022-07-21T00:26:36;2.20;;;1.13;;
65686;SDS011;52406;45.078;38.986;2022-07-21T00:29:06;3.78;;;1.17;;
65686;SDS011;52406;45.078;38.986;2022-07-21T00:31:32;2.88;;;1.10;;
65686;SDS011;52406;45.078;38.986;2022-07-21T00:33:59;3.60;;;1.35;;
65686;SDS011;52406;45.078;38.986;2022-07-21T00:36:25;5.40;;;1.30;;
65686;SDS011;52406;45.078;38.986;2022-07-21T00:38:52;2.47;;;1.27;;
65686;SDS011;52406;45.078;38.986;2022-07-21T00:41:19;5.78;;;1.27;;
65686;SDS011;52406;45.078;38.986;2022-07-21T00:43:46;2.40;;;1.20;;
65686;SDS011;52406;45.078;38.986;2022-07-21T00:46:12;2.55;;;1.10;;
65686;SDS011;52406;45.078;38.986;2022-07-21T00:48:39;4.40;;;1.17;;
65686;SDS011;52406;45.078;38.986;2022-07-21T00:51:05;2.00;;;1.40;;
65686;SDS011;52406;45.078;38.986;2022-07-21T00:53:33;1.80;;;1.15;;
65686;SDS011;52406;45.078;38.986;2022-07-21T00:56:01;4.13;;;1.40;;
65686;SDS011;52406;45.078;38.986;2022-07-21T00:58:28;2.03;;;1.20;;
65686;SDS011;52406;45.078;38.986;2022-07-21T01:00:54;2.92;;;1.13;;
65686;SDS011;52406;45.078;38.986;2022-07-21T01:03:21;4.65;;;1.30;;
65686;SDS011;52406;45.078;38.986;2022-07-21T01:05:48;4.50;;;1.33;;
65686;SDS011;52406;45.078;38.986;2022-07-21T01:08:15;1.88;;;1.20;;
65686;SDS011;52406;45.078;38.986;2022-07-21T01:10:41;3.30;;;1.30;;
65686;SDS011;52406;45.078;38.986;2022-07-21T01:13:08;2.85;;;1.60;;
65686;SDS011;52406;45.078;38.986;2022-07-21T01:15:35;7.63;;;1.40;;
65686;SDS011;52406;45.078;38.986;2022-07-21T01:18:03;2.22;;;1.30;;
65686;SDS011;52406;45.078;38.986;2022-07-21T01:20:33;1.65;;;1.15;;
65686;SDS011;52406;45.078;38.986;2022-07-21T01:23:01;2.05;;;1.20;;
65686;SDS011;52406;45.078;38.986;2022-07-21T01:25:28;8.52;;;1.60;;
65686;SDS011;52406;45.078;38.986;2022-07-21T01:27:56;6.38;;;1.65;;
65686;SDS011;52406;45.078;38.986;2022-07-21T01:30:25;2.45;;;1.30;;
65686;SDS011;52406;45.078;38.986;2022-07-21T01:32:52;3.03;;;1.17;;
65686;SDS011;52406;45.078;38.986;2022-07-21T01:35:18;3.75;;;1.10;;
65686;SDS011;52406;45.078;38.986;2022-07-21T01:37:49;1.95;;;1.33;;
65686;SDS011;52406;45.078;38.986;2022-07-21T01:40:16;5.20;;;1.35;;
65686;SDS011;52406;45.078;38.986;2022-07-21T01:43:05;5.07;;;1.30;;
65686;SDS011;52406;45.078;38.986;2022-07-21T01:45:32;5.82;;;1.40;;
65686;SDS011;52406;45.078;38.986;2022-07-21T01:47:58;5.78;;;1.30;;
65686;SDS011;52406;45.078;38.986;2022-07-21T01:50:25;3.05;;;1.42;;
65686;SDS011;52406;45.078;38.986;2022-07-21T01:52:56;5.50;;;1.30;;
65686;SDS011;52406;45.078;38.986;2022-07-21T01:55:24;6.70;;;1.52;;
65686;SDS011;52406;45.078;38.986;2022-07-21T01:57:51;1.83;;;1.48;;
65686;SDS011;52406;45.078;38.986;2022-07-21T02:00:19;4.93;;;1.40;;
65686;SDS011;52406;45.078;38.986;2022-07-21T02:02:49;5.28;;;1.48;;
65686;SDS011;52406;45.078;38.986;2022-07-21T02:05:16;3.45;;;1.30;;
65686;SDS011;52406;45.078;38.986;2022-07-21T02:07:42;5.35;;;1.40;;
65686;SDS011;52406;45.078;38.986;2022-07-21T02:10:11;8.55;;;1.63;;
65686;SDS011;52406;45.078;38.986;2022-07-21T02:12:47;3.40;;;1.42;;
65686;SDS011;52406;45.078;38.986;2022-07-21T02:15:16;3.33;;;1.30;;
65686;SDS011;52406;45.078;38.986;2022-07-21T02:17:44;4.40;;;1.50;;
65686;SDS011;52406;45.078;38.986;2022-07-21T02:20:13;8.25;;;1.40;;
65686;SDS011;52406;45.078;38.986;2022-07-21T02:22:40;9.93;;;1.50;;
65686;SDS011;52406;45.078;38.986;2022-07-21T02:25:11;4.13;;;1.45;;
65686;SDS011;52406;45.078;38.986;2022-07-21T02:27:37;5.57;;;1.92;;
65686;SDS011;52406;45.078;38.986;2022-07-21T02:30:04;2.55;;;1.60;;
65686;SDS011;52406;45.078;38.986;2022-07-21T02:32:32;5.40;;;1.50;;
65686;SDS011;52406;45.078;38.986;2022-07-21T02:34:59;3.97;;;1.40;;
65686;SDS011;52406;45.078;38.986;2022-07-21T02:37:26;3.85;;;1.52;;
65686;SDS011;52406;45.078;38.986;2022-07-21T02:39:53;4.97;;;1.30;;
65686;SDS011;52406;45.078;38.986;2022-07-21T02:42:20;4.07;;;1.27;;
65686;SDS011;52406;45.078;38.986;2022-07-21T02:44:46;2.53;;;1.20;;
65686;SDS011;52406;45.078;38.986;2022-07-21T02:47:13;4.47;;;1.42;;
65686;SDS011;52406;45.078;38.986;2022-07-21T02:49:40;7.15;;;1.80;;
65686;SDS011;52406;45.078;38.986;2022-07-21T02:52:06;6.38;;;1.40;;
65686;SDS011;52406;45.078;38.986;2022-07-21T02:54:33;5.53;;;1.55;;
65686;SDS011;52406;45.078;38.986;2022-07-21T02:56:59;6.43;;;1.30;;
65686;SDS011;52406;45.078;38.986;2022-07-21T02:59:26;4.05;;;1.42;;
65686;SDS011;52406;45.078;38.986;2022-07-21T03:01:52;5.20;;;1.67;;
65686;SDS011;52406;45.078;38.986;2022-07-21T03:04:21;7.10;;;1.70;;
65686;SDS011;52406;45.078;38.986;2022-07-21T03:06:55;3.40;;;1.20;;
65686;SDS011;52406;45.078;38.986;2022-07-21T03:09:24;4.45;;;1.45;;
65686;SDS011;52406;45.078;38.986;2022-07-21T03:11:50;5.82;;;1.42;;
65686;SDS011;52406;45.078;38.986;2022-07-21T03:14:17;8.63;;;1.40;;
65686;SDS011;52406;45.078;38.986;2022-07-21T03:16:43;4.43;;;1.25;;
65686;SDS011;52406;45.078;38.986;2022-07-21T03:19:11;7.75;;;1.60;;
65686;SDS011;52406;45.078;38.986;2022-07-21T03:21:37;2.97;;;1.50;;
65686;SDS011;52406;45.078;38.986;2022-07-21T03:24:14;3.50;;;1.58;;
65686;SDS011;52406;45.078;38.986;2022-07-21T03:26:40;3.45;;;1.67;;
65686;SDS011;52406;45.078;38.986;2022-07-21T03:29:07;5.18;;;1.50;;
65686;SDS011;52406;45.078;38.986;2022-07-21T03:31:35;2.33;;;1.33;;
65686;SDS011;52406;45.078;38.986;2022-07-21T03:34:01;2.65;;;1.42;;
65686;SDS011;52406;45.078;38.986;2022-07-21T03:36:29;7.93;;;1.60;;
65686;SDS011;52406;45.078;38.986;2022-07-21T03:38:56;2.22;;;1.40;;
65686;SDS011;52406;45.078;38.986;2022-07-21T03:41:22;7.43;;;2.00;;
65686;SDS011;52406;45.078;38.986;2022-07-21T03:43:49;4.10;;;1.70;;
65686;SDS011;52406;45.078;38.986;2022-07-21T03:46:15;8.30;;;1.73;;
65686;SDS011;52406;45.078;38.986;2022-07-21T03:48:42;2.60;;;1.58;;
65686;SDS011;52406;45.078;38.986;2022-07-21T03:51:08;5.38;;;1.50;;
65686;SDS011;52406;45.078;38.986;2022-07-21T03:53:35;4.32;;;1.55;;
65686;SDS011;52406;45.078;38.986;2022-07-21T03:56:01;4.53;;;1.50;;
65686;SDS011;52406;45.078;38.986;2022-07-21T03:58:28;3.15;;;1.27;;
65686;SDS011;52406;45.078;38.986;2022-07-21T04:00:55;8.65;;;1.40;;
65686;SDS011;52406;45.078;38.986;2022-07-21T04:03:21;4.30;;;1.70;;
65686;SDS011;52406;45.078;38.986;2022-07-21T04:05:48;6.78;;;1.60;;
65686;SDS011;52406;45.078;38.986;2022-07-21T04:08:15;2.42;;;1.40;;
65686;SDS011;52406;45.078;38.986;2022-07-21T04:10:43;7.65;;;1.88;;
65686;SDS011;52406;45.078;38.986;2022-07-21T04:13:13;3.83;;;1.38;;
65686;SDS011;52406;45.078;38.986;2022-07-21T04:15:40;2.90;;;1.40;;
65686;SDS011;52406;45.078;38.986;2022-07-21T04:18:07;5.22;;;1.45;;
65686;SDS011;52406;45.078;38.986;2022-07-21T04:20:34;3.13;;;1.52;;
65686;SDS011;52406;45.078;38.986;2022-07-21T04:23:00;3.05;;;1.40;;
65686;SDS011;52406;45.078;38.986;2022-07-21T04:25:28;4.47;;;1.38;;
65686;SDS011;52406;45.078;38.986;2022-07-21T04:27:57;4.68;;;1.67;;
65686;SDS011;52406;45.078;38.986;2022-07-21T04:30:24;7.28;;;1.70;;
65686;SDS011;52406;45.078;38.986;2022-07-21T04:32:53;1.92;;;1.40;;
65686;SDS011;52406;45.078;38.986;2022-07-21T04:35:23;2.95;;;1.42;;
65686;SDS011;52406;45.078;38.986;2022-07-21T04:37:49;2.95;;;1.33;;
65686;SDS011;52406;45.078;38.986;2022-07-21T04:40:17;2.08;;;1.50;;
65686;SDS011;52406;45.078;38.986;2022-07-21T04:42:44;4.15;;;1.45;;
65686;SDS011;52406;45.078;38.986;2022-07-21T04:45:12;9.50;;;1.98;;
65686;SDS011;52406;45.078;38.986;2022-07-21T04:47:43;7.60;;;2.10;;
65686;SDS011;52406;45.078;38.986;2022-07-21T04:50:18;2.25;;;1.65;;
65686;SDS011;52406;45.078;38.986;2022-07-21T04:52:47;6.15;;;1.65;;
65686;SDS011;52406;45.078;38.986;2022-07-21T04:55:14;5.88;;;1.73;;
65686;SDS011;52406;45.078;38.986;2022-07-21T04:57:42;3.35;;;1.33;;
65686;SDS011;52406;45.078;38.986;2022-07-21T05:00:11;8.63;;;2.10;;
65686;SDS011;52406;45.078;38.986;2022-07-21T05:02:42;2.80;;;1.52;;
65686;SDS011;52406;45.078;38.986;2022-07-21T05:05:10;7.88;;;2.08;;
65686;SDS011;52406;45.078;38.986;2022-07-21T05:07:36;4.50;;;2.00;;
65686;SDS011;52406;45.078;38.986;2022-07-21T05:10:12;6.93;;;2.63;;
65686;SDS011;52406;45.078;38.986;2022-07-21T05:12:39;3.50;;;2.03;;
65686;SDS011;52406;45.078;38.986;2022-07-21T05:15:06;3.20;;;1.90;;
65686;SDS011;52406;45.078;38.986;2022-07-21T05:17:35;4.10;;;1.90;;
65686;SDS011;52406;45.078;38.986;2022-07-21T05:20:02;5.43;;;2.03;;
65686;SDS011;52406;45.078;38.986;2022-07-21T05:22:30;5.07;;;2.10;;
65686;SDS011;52406;45.078;38.986;2022-07-21T05:24:56;5.25;;;1.90;;
65686;SDS011;52406;45.078;38.986;2022-07-21T05:27:25;4.43;;;1.70;;
65686;SDS011;52406;45.078;38.986;2022-07-21T05:29:52;6.97;;;2.00;;
65686;SDS011;52406;45.078;38.986;2022-07-21T05:32:23;11.60;;;2.20;;
65686;SDS011;52406;45.078;38.986;2022-07-21T05:34:50;8.27;;;2.10;;
65686;SDS011;52406;45.078;38.986;2022-07-21T05:37:16;4.13;;;1.73;;
65686;SDS011;52406;45.078;38.986;2022-07-21T05:39:43;8.95;;;2.20;;
65686;SDS011;52406;45.078;38.986;2022-07-21T05:42:13;6.13;;;2.17;;
65686;SDS011;52406;45.078;38.986;2022-07-21T05:44:40;7.38;;;1.95;;
65686;SDS011;52406;45.078;38.986;2022-07-21T05:47:06;5.88;;;2.30;;
65686;SDS011;52406;45.078;38.986;2022-07-21T05:49:33;8.60;;;2.22;;
65686;SDS011;52406;45.078;38.986;2022-07-21T05:52:02;8.82;;;2.22;;
65686;SDS011;52406;45.078;38.986;2022-07-21T05:54:32;8.48;;;2.53;;
65686;SDS011;52406;45.078;38.986;2022-07-21T05:57:00;8.50;;;2.30;;
65686;SDS011;52406;45.078;38.986;2022-07-21T05:59:28;4.80;;;1.80;;
65686;SDS011;52406;45.078;38.986;2022-07-21T06:01:56;6.57;;;1.80;;
65686;SDS011;52406;45.078;38.986;2022-07-21T06:04:23;6.28;;;1.92;;
65686;SDS011;52406;45.078;38.986;2022-07-21T06:06:49;4.25;;;2.17;;
65686;SDS011;52406;45.078;38.986;2022-07-21T06:09:18;6.70;;;2.00;;
65686;SDS011;52406;45.078;38.986;2022-07-21T06:11:45;6.38;;;2.00;;
65686;SDS011;52406;45.078;38.986;2022-07-21T06:14:12;7.32;;;2.13;;
65686;SDS011;52406;45.078;38.986;2022-07-21T06:16:40;5.75;;;1.83;;
65686;SDS011;52406;45.078;38.986;2022-07-21T06:19:06;4.75;;;1.83;;
65686;SDS011;52406;45.078;38.986;2022-07-21T06:21:33;5.57;;;1.88;;
65686;SDS011;52406;45.078;38.986;2022-07-21T06:24:00;4.88;;;2.08;;
65686;SDS011;52406;45.078;38.986;2022-07-21T06:26:27;4.60;;;2.00;;
65686;SDS011;52406;45.078;38.986;2022-07-21T06:28:55;4.70;;;2.05;;
65686;SDS011;52406;45.078;38.986;2022-07-21T06:31:22;8.05;;;2.40;;
65686;SDS011;52406;45.078;38.986;2022-07-21T06:33:48;4.68;;;1.85;;
65686;SDS011;52406;45.078;38.986;2022-07-21T06:36:19;2.53;;;1.63;;
65686;SDS011;52406;45.078;38.986;2022-07-21T06:38:45;10.98;;;2.13;;
65686;SDS011;52406;45.078;38.986;2022-07-21T06:41:12;6.63;;;1.90;;
65686;SDS011;52406;45.078;38.986;2022-07-21T06:43:40;4.22;;;1.92;;
65686;SDS011;52406;45.078;38.986;2022-07-21T06:46:09;4.35;;;1.85;;
65686;SDS011;52406;45.078;38.986;2022-07-21T06:48:36;3.95;;;1.83;;
65686;SDS011;52406;45.078;38.986;2022-07-21T06:51:03;2.92;;;2.00;;
65686;SDS011;52406;45.078;38.986;2022-07-21T06:53:29;7.93;;;2.05;;
65686;SDS011;52406;45.078;38.986;2022-07-21T06:55:57;5.95;;;1.90;;
65686;SDS011;52406;45.078;38.986;2022-07-21T06:58:28;7.22;;;2.13;;
65686;SDS011;52406;45.078;38.986;2022-07-21T07:00:57;5.55;;;1.67;;
65686;SDS011;52406;45.078;38.986;2022-07-21T07:03:25;9.80;;;1.92;;
65686;SDS011;52406;45.078;38.986;2022-07-21T07:05:52;7.13;;;2.28;;
65686;SDS011;52406;45.078;38.986;2022-07-21T07:08:19;5.57;;;1.98;;
65686;SDS011;52406;45.078;38.986;2022-07-21T07:10:49;3.50;;;1.58;;
65686;SDS011;52406;45.078;38.986;2022-07-21T07:13:16;4.20;;;2.00;;
65686;SDS011;52406;45.078;38.986;2022-07-21T07:15:46;5.45;;;1.75;;
65686;SDS011;52406;45.078;38.986;2022-07-21T07:18:12;5.88;;;1.92;;
65686;SDS011;52406;45.078;38.986;2022-07-21T07:20:39;7.38;;;1.75;;
65686;SDS011;52406;45.078;38.986;2022-07-21T07:23:13;1.90;;;1.50;;
65686;SDS011;52406;45.078;38.986;2022-07-21T07:25:39;3.90;;;1.70;;
65686;SDS011;52406;45.078;38.986;2022-07-21T07:28:06;7.55;;;2.00;;
65686;SDS011;52406;45.078;38.986;2022-07-21T07:30:34;7.45;;;1.70;;
65686;SDS011;52406;45.078;38.986;2022-07-21T07:33:01;5.00;;;1.60;;
65686;SDS011;52406;45.078;38.986;2022-07-21T07:35:28;4.72;;;1.98;;
65686;SDS011;52406;45.078;38.986;2022-07-21T07:37:54;3.30;;;1.80;;
65686;SDS011;52406;45.078;38.986;2022-07-21T07:40:23;3.58;;;1.50;;
65686;SDS011;52406;45.078;38.986;2022-07-21T07:42:51;5.30;;;1.70;;
65686;SDS011;52406;45.078;38.986;2022-07-21T07:45:17;2.83;;;1.85;;
65686;SDS011;52406;45.078;38.986;2022-07-21T07:47:44;7.25;;;2.03;;
65686;SDS011;52406;45.078;38.986;2022-07-21T07:50:12;5.45;;;1.73;;
65686;SDS011;52406;45.078;38.986;2022-07-21T07:52:42;4.53;;;2.13;;
65686;SDS011;52406;45.078;38.986;2022-07-21T07:55:10;5.78;;;1.90;;
65686;SDS011;52406;45.078;38.986;2022-07-21T07:57:38;3.75;;;1.60;;
65686;SDS011;52406;45.078;38.986;2022-07-21T08:00:07;7.45;;;1.80;;
65686;SDS011;52406;45.078;38.986;2022-07-21T08:02:38;3.10;;;1.67;;
65686;SDS011;52406;45.078;38.986;2022-07-21T08:05:06;3.78;;;1.50;;
65686;SDS011;52406;45.078;38.986;2022-07-21T08:07:37;5.60;;;1.52;;
65686;SDS011;52406;45.078;38.986;2022-07-21T08:10:05;2.55;;;1.65;;
65686;SDS011;52406;45.078;38.986;2022-07-21T08:12:33;3.10;;;1.80;;
65686;SDS011;52406;45.078;38.986;2022-07-21T08:15:01;4.57;;;1.80;;
65686;SDS011;52406;45.078;38.986;2022-07-21T08:17:28;2.40;;;1.50;;
65686;SDS011;52406;45.078;38.986;2022-07-21T08:19:55;4.28;;;1.80;;
65686;SDS011;52406;45.078;38.986;2022-07-21T08:22:21;4.68;;;1.77;;
65686;SDS011;52406;45.078;38.986;2022-07-21T08:24:49;7.10;;;1.88;;
65686;SDS011;52406;45.078;38.986;2022-07-21T08:27:15;5.57;;;1.67;;
65686;SDS011;52406;45.078;38.986;2022-07-21T08:29:42;4.93;;;1.40;;
65686;SDS011;52406;45.078;38.986;2022-07-21T08:32:09;5.45;;;1.67;;
65686;SDS011;52406;45.078;38.986;2022-07-21T08:34:35;6.90;;;1.75;;
65686;SDS011;52406;45.078;38.986;2022-07-21T08:37:02;5.07;;;1.88;;
65686;SDS011;52406;45.078;38.986;2022-07-21T08:39:30;4.22;;;1.42;;
65686;SDS011;52406;45.078;38.986;2022-07-21T08:41:56;7.15;;;1.60;;
65686;SDS011;52406;45.078;38.986;2022-07-21T08:44:23;5.32;;;1.60;;
65686;SDS011;52406;45.078;38.986;2022-07-21T08:46:52;2.85;;;1.40;;
65686;SDS011;52406;45.078;38.986;2022-07-21T08:49:20;7.50;;;1.50;;
65686;SDS011;52406;45.078;38.986;2022-07-21T08:51:48;2.42;;;1.30;;
65686;SDS011;52406;45.078;38.986;2022-07-21T08:54:17;7.13;;;1.60;;
65686;SDS011;52406;45.078;38.986;2022-07-21T08:56:47;2.75;;;1.33;;
65686;SDS011;52406;45.078;38.986;2022-07-21T08:59:15;2.72;;;1.30;;
65686;SDS011;52406;45.078;38.986;2022-07-21T09:01:42;2.17;;;1.20;;
65686;SDS011;52406;45.078;38.986;2022-07-21T09:04:18;6.30;;;1.38;;
65686;SDS011;52406;45.078;38.986;2022-07-21T09:09:26;6.65;;;1.38;;
65686;SDS011;52406;45.078;38.986;2022-07-21T09:11:54;7.18;;;1.30;;
65686;SDS011;52406;45.078;38.986;2022-07-21T09:14:25;2.05;;;1.23;;
65686;SDS011;52406;45.078;38.986;2022-07-21T09:16:58;5.85;;;1.40;;
65686;SDS011;52406;45.078;38.986;2022-07-21T09:19:27;3.88;;;1.38;;
65686;SDS011;52406;45.078;38.986;2022-07-21T09:21:58;5.32;;;1.40;;
65686;SDS011;52406;45.078;38.986;2022-07-21T09:27:14;3.65;;;1.50;;
65686;SDS011;52406;45.078;38.986;2022-07-21T09:29:59;2.80;;;1.38;;
65686;SDS011;52406;45.078;38.986;2022-07-21T09:32:29;7.30;;;1.40;;
65686;SDS011;52406;45.078;38.986;2022-07-21T09:35:02;4.78;;;1.50;;
65686;SDS011;52406;45.078;38.986;2022-07-21T09:37:40;4.85;;;1.15;;
65686;SDS011;52406;45.078;38.986;2022-07-21T09:40:08;5.57;;;1.40;;
65686;SDS011;52406;45.078;38.986;2022-07-21T09:42:39;7.55;;;1.80;;
65686;SDS011;52406;45.078;38.986;2022-07-21T09:45:15;5.13;;;1.45;;
65686;SDS011;52406;45.078;38.986;2022-07-21T09:47:43;4.88;;;1.50;;
65686;SDS011;52406;45.078;38.986;2022-07-21T09:50:12;6.20;;;1.60;;
65686;SDS011;52406;45.078;38.986;2022-07-21T09:52:41;2.95;;;1.40;;
65686;SDS011;52406;45.078;38.986;2022-07-21T09:55:10;6.50;;;1.75;;
65686;SDS011;52406;45.078;38.986;2022-07-21T09:57:39;2.15;;;1.30;;
65686;SDS011;52406;45.078;38.986;2022-07-21T10:00:07;6.15;;;1.75;;
65686;SDS011;52406;45.078;38.986;2022-07-21T10:02:38;10.68;;;1.60;;
65686;SDS011;52406;45.078;38.986;2022-07-21T10:05:06;9.57;;;1.40;;
65686;SDS011;52406;45.078;38.986;2022-07-21T10:07:36;5.70;;;1.55;;
65686;SDS011;52406;45.078;38.986;2022-07-21T10:10:08;9.00;;;1.65;;
65686;SDS011;52406;45.078;38.986;2022-07-21T10:12:35;8.23;;;1.50;;
65686;SDS011;52406;45.078;38.986;2022-07-21T10:15:02;8.57;;;1.70;;
65686;SDS011;52406;45.078;38.986;2022-07-21T10:17:31;8.60;;;2.10;;
65686;SDS011;52406;45.078;38.986;2022-07-21T10:25:36;4.10;;;1.90;;
65686;SDS011;52406;45.078;38.986;2022-07-21T10:30:37;12.55;;;2.28;;
65686;SDS011;52406;45.078;38.986;2022-07-21T10:33:05;4.07;;;1.90;;
65686;SDS011;52406;45.078;38.986;2022-07-21T10:35:32;4.13;;;1.73;;
65686;SDS011;52406;45.078;38.986;2022-07-21T10:38:02;10.35;;;1.98;;
65686;SDS011;52406;45.078;38.986;2022-07-21T10:45:35;5.10;;;1.60;;
65686;SDS011;52406;45.078;38.986;2022-07-21T10:48:07;4.38;;;2.08;;
65686;SDS011;52406;45.078;38.986;2022-07-21T10:50:57;3.78;;;1.75;;
65686;SDS011;52406;45.078;38.986;2022-07-21T10:53:24;7.90;;;1.73;;
65686;SDS011;52406;45.078;38.986;2022-07-21T10:55:52;2.40;;;1.55;;
65686;SDS011;52406;45.078;38.986;2022-07-21T11:03:21;6.90;;;1.92;;
65686;SDS011;52406;45.078;38.986;2022-07-21T11:08:44;3.92;;;1.52;;
65686;SDS011;52406;45.078;38.986;2022-07-21T11:11:23;2.42;;;1.30;;
65686;SDS011;52406;45.078;38.986;2022-07-21T11:13:58;5.70;;;1.77;;
65686;SDS011;52406;45.078;38.986;2022-07-21T11:21:55;3.17;;;1.50;;
65686;SDS011;52406;45.078;38.986;2022-07-21T11:24:24;5.90;;;1.40;;
65686;SDS011;52406;45.078;38.986;2022-07-21T11:29:25;3.70;;;1.65;;
65686;SDS011;52406;45.078;38.986;2022-07-21T11:31:53;3.70;;;1.55;;
65686;SDS011;52406;45.078;38.986;2022-07-21T11:34:20;2.90;;;1.48;;
65686;SDS011;52406;45.078;38.986;2022-07-21T11:36:46;2.88;;;1.45;;
65686;SDS011;52406;45.078;38.986;2022-07-21T11:39:14;2.42;;;1.52;;
65686;SDS011;52406;45.078;38.986;2022-07-21T11:41:44;1.85;;;1.42;;
65686;SDS011;52406;45.078;38.986;2022-07-21T11:44:11;2.83;;;1.80;;
65686;SDS011;52406;45.078;38.986;2022-07-21T11:46:57;2.55;;;1.73;;
65686;SDS011;52406;45.078;38.986;2022-07-21T11:49:28;2.50;;;1.60;;
65686;SDS011;52406;45.078;38.986;2022-07-21T11:54:29;4.45;;;1.83;;
65686;SDS011;52406;45.078;38.986;2022-07-21T11:56:59;5.22;;;1.80;;
65686;SDS011;52406;45.078;38.986;2022-07-21T11:59:28;5.53;;;1.77;;
65686;SDS011;52406;45.078;38.986;2022-07-21T12:04:28;7.00;;;1.80;;
65686;SDS011;52406;45.078;38.986;2022-07-21T12:06:58;5.07;;;2.10;;
65686;SDS011;52406;45.078;38.986;2022-07-21T12:09:25;2.50;;;1.73;;
65686;SDS011;52406;45.078;38.986;2022-07-21T12:11:52;4.18;;;1.48;;
65686;SDS011;52406;45.078;38.986;2022-07-21T12:14:19;2.85;;;1.42;;
65686;SDS011;52406;45.078;38.986;2022-07-21T12:16:52;2.88;;;1.48;;
65686;SDS011;52406;45.078;38.986;2022-07-21T12:19:19;1.63;;;1.40;;
65686;SDS011;52406;45.078;38.986;2022-07-21T12:21:50;2.72;;;1.60;;
65686;SDS011;52406;45.078;38.986;2022-07-21T12:24:18;8.68;;;1.73;;
65686;SDS011;52406;45.078;38.986;2022-07-21T12:26:47;6.13;;;2.00;;
65686;SDS011;52406;45.078;38.986;2022-07-21T12:29:26;4.22;;;1.90;;
65686;SDS011;52406;45.078;38.986;2022-07-21T12:31:55;5.30;;;1.60;;
65686;SDS011;52406;45.078;38.986;2022-07-21T12:34:22;4.07;;;1.60;;
65686;SDS011;52406;45.078;38.986;2022-07-21T12:36:50;2.55;;;1.45;;
65686;SDS011;52406;45.078;38.986;2022-07-21T12:39:17;6.28;;;1.85;;
65686;SDS011;52406;45.078;38.986;2022-07-21T12:42:29;2.60;;;1.70;;
65686;SDS011;52406;45.078;38.986;2022-07-21T12:51:00;5.45;;;1.90;;
65686;SDS011;52406;45.078;38.986;2022-07-21T12:53:32;4.72;;;1.70;;
65686;SDS011;52406;45.078;38.986;2022-07-21T12:56:03;3.90;;;1.73;;
65686;SDS011;52406;45.078;38.986;2022-07-21T12:58:30;1.85;;;1.63;;
65686;SDS011;52406;45.078;38.986;2022-07-21T13:00:56;8.40;;;1.90;;
65686;SDS011;52406;45.078;38.986;2022-07-21T13:03:26;4.70;;;1.88;;
65686;SDS011;52406;45.078;38.986;2022-07-21T13:05:53;4.40;;;1.70;;
65686;SDS011;52406;45.078;38.986;2022-07-21T13:08:22;3.10;;;1.70;;
65686;SDS011;52406;45.078;38.986;2022-07-21T13:10:50;4.28;;;1.80;;
65686;SDS011;52406;45.078;38.986;2022-07-21T13:13:17;3.13;;;1.67;;
65686;SDS011;52406;45.078;38.986;2022-07-21T13:15:43;2.65;;;1.63;;
65686;SDS011;52406;45.078;38.986;2022-07-21T13:18:10;4.43;;;1.73;;
65686;SDS011;52406;45.078;38.986;2022-07-21T13:20:39;3.00;;;1.77;;
65686;SDS011;52406;45.078;38.986;2022-07-21T13:23:06;5.82;;;1.83;;
65686;SDS011;52406;45.078;38.986;2022-07-21T13:25:38;4.05;;;1.77;;
65686;SDS011;52406;45.078;38.986;2022-07-21T13:28:05;3.88;;;1.55;;
65686;SDS011;52406;45.078;38.986;2022-07-21T13:30:32;3.47;;;1.88;;
65686;SDS011;52406;45.078;38.986;2022-07-21T13:32:59;2.33;;;1.83;;
65686;SDS011;52406;45.078;38.986;2022-07-21T13:35:25;4.95;;;1.60;;
65686;SDS011;52406;45.078;38.986;2022-07-21T13:37:53;6.65;;;2.10;;
65686;SDS011;52406;45.078;38.986;2022-07-21T13:40:26;3.15;;;1.80;;
65686;SDS011;52406;45.078;38.986;2022-07-21T13:42:54;6.97;;;1.73;;
65686;SDS011;52406;45.078;38.986;2022-07-21T13:45:22;5.10;;;1.77;;
65686;SDS011;52406;45.078;38.986;2022-07-21T13:47:52;2.15;;;1.40;;
65686;SDS011;52406;45.078;38.986;2022-07-21T13:50:18;5.03;;;1.90;;
65686;SDS011;52406;45.078;38.986;2022-07-21T13:52:46;3.40;;;1.88;;
65686;SDS011;52406;45.078;38.986;2022-07-21T13:55:12;6.65;;;2.00;;
65686;SDS011;52406;45.078;38.986;2022-07-21T13:57:39;3.58;;;1.85;;
65686;SDS011;52406;45.078;38.986;2022-07-21T14:00:06;5.32;;;1.85;;
65686;SDS011;52406;45.078;38.986;2022-07-21T14:02:37;2.95;;;1.70;;
65686;SDS011;52406;45.078;38.986;2022-07-21T14:05:04;3.90;;;2.00;;
65686;SDS011;52406;45.078;38.986;2022-07-21T14:07:31;4.93;;;2.15;;
65686;SDS011;52406;45.078;38.986;2022-07-21T14:09:57;3.17;;;1.80;;
65686;SDS011;52406;45.078;38.986;2022-07-21T14:12:24;4.50;;;1.80;;
65686;SDS011;52406;45.078;38.986;2022-07-21T14:14:51;4.63;;;1.80;;
65686;SDS011;52406;45.078;38.986;2022-07-21T14:17:17;10.63;;;1.95;;
65686;SDS011;52406;45.078;38.986;2022-07-21T14:19:44;2.80;;;2.00;;
65686;SDS011;52406;45.078;38.986;2022-07-21T14:22:13;5.00;;;1.90;;
65686;SDS011;52406;45.078;38.986;2022-07-21T14:24:41;13.10;;;2.38;;
65686;SDS011;52406;45.078;38.986;2022-07-21T14:27:26;6.47;;;1.90;;
65686;SDS011;52406;45.078;38.986;2022-07-21T14:29:52;3.75;;;1.85;;
65686;SDS011;52406;45.078;38.986;2022-07-21T14:32:19;3.05;;;1.67;;
65686;SDS011;52406;45.078;38.986;2022-07-21T14:34:51;2.30;;;1.60;;
65686;SDS011;52406;45.078;38.986;2022-07-21T14:37:18;5.35;;;1.70;;
65686;SDS011;52406;45.078;38.986;2022-07-21T14:39:45;7.38;;;1.70;;
65686;SDS011;52406;45.078;38.986;2022-07-21T14:42:13;4.05;;;1.70;;
65686;SDS011;52406;45.078;38.986;2022-07-21T14:44:40;3.80;;;1.63;;
65686;SDS011;52406;45.078;38.986;2022-07-21T14:47:08;3.90;;;1.80;;
65686;SDS011;52406;45.078;38.986;2022-07-21T14:49:36;5.95;;;1.67;;
65686;SDS011;52406;45.078;38.986;2022-07-21T14:52:03;9.02;;;1.80;;
65686;SDS011;52406;45.078;38.986;2022-07-21T14:54:32;3.13;;;1.70;;
65686;SDS011;52406;45.078;38.986;2022-07-21T14:57:00;2.65;;;1.60;;
65686;SDS011;52406;45.078;38.986;2022-07-21T14:59:26;4.63;;;1.73;;
65686;SDS011;52406;45.078;38.986;2022-07-21T15:01:53;3.67;;;1.65;;
65686;SDS011;52406;45.078;38.986;2022-07-21T15:04:20;4.03;;;1.80;;
65686;SDS011;52406;45.078;38.986;2022-07-21T15:06:48;3.10;;;1.73;;
65686;SDS011;52406;45.078;38.986;2022-07-21T15:09:15;4.88;;;3.50;;
65686;SDS011;52406;45.078;38.986;2022-07-21T15:11:42;5.20;;;2.25;;
65686;SDS011;52406;45.078;38.986;2022-07-21T15:14:08;5.60;;;1.60;;
65686;SDS011;52406;45.078;38.986;2022-07-21T15:16:35;5.22;;;2.00;;
65686;SDS011;52406;45.078;38.986;2022-07-21T15:19:01;3.75;;;2.30;;
65686;SDS011;52406;45.078;38.986;2022-07-21T15:21:28;3.92;;;2.35;;
65686;SDS011;52406;45.078;38.986;2022-07-21T15:23:55;7.88;;;2.50;;
65686;SDS011;52406;45.078;38.986;2022-07-21T15:26:21;7.70;;;2.38;;